sensor_id;sensor_type;location;lat;lon;timestamp;P1;durP1;ratioP1;P2;durP2;ratioP2
6342;SDS011;3204;42.698;23.298;2022-12-19T00:01:55;28.03;;;17.90;;
6342;SDS011;3204;42.698;23.298;2022-12-19T00:04:20;29.80;;;17.50;;
6342;SDS011;3204;42.698;23.298;2022-12-19T00:06:46;26.00;;;16.50;;
6342;SDS011;3204;42.698;23.298;2022-12-19T00:09:12;27.03;;;16.20;;
6342;SDS011;3204;42.698;23.298;2022-12-19T00:11:38;24.37;;;15.87;;
6342;SDS011;3204;42.698;23.298;2022-12-19T00:14:04;25.80;;;16.33;;
6342;SDS011;3204;42.698;23.298;2022-12-19T00:16:30;30.63;;;17.77;;
6342;SDS011;3204;42.698;23.298;2022-12-19T00:18:57;25.57;;;15.80;;
6342;SDS011;3204;42.698;23.298;2022-12-19T00:21:26;28.60;;;17.40;;
6342;SDS011;3204;42.698;23.298;2022-12-19T00:23:53;28.47;;;17.07;;
6342;SDS011;3204;42.698;23.298;2022-12-19T00:28:50;24.90;;;16.67;;
6342;SDS011;3204;42.698;23.298;2022-12-19T00:31:18;31.50;;;18.07;;
6342;SDS011;3204;42.698;23.298;2022-12-19T00:33:45;30.70;;;17.70;;
6342;SDS011;3204;42.698;23.298;2022-12-19T00:36:33;31.37;;;17.67;;
6342;SDS011;3204;42.698;23.298;2022-12-19T00:38:58;29.40;;;17.60;;
6342;SDS011;3204;42.698;23.298;2022-12-19T00:41:26;27.33;;;16.97;;
6342;SDS011;3204;42.698;23.298;2022-12-19T00:43:54;27.40;;;17.43;;
6342;SDS011;3204;42.698;23.298;2022-12-19T00:46:24;26.73;;;16.50;;
6342;SDS011;3204;42.698;23.298;2022-12-19T00:48:50;28.10;;;17.13;;
6342;SDS011;3204;42.698;23.298;2022-12-19T00:51:20;29.17;;;17.43;;
6342;SDS011;3204;42.698;23.298;2022-12-19T00:53:47;23.77;;;16.20;;
6342;SDS011;3204;42.698;23.298;2022-12-19T00:56:16;31.37;;;18.00;;
6342;SDS011;3204;42.698;23.298;2022-12-19T00:58:43;25.33;;;16.23;;
6342;SDS011;3204;42.698;23.298;2022-12-19T01:01:13;24.83;;;15.33;;
6342;SDS011;3204;42.698;23.298;2022-12-19T01:03:40;28.60;;;16.60;;
6342;SDS011;3204;42.698;23.298;2022-12-19T01:06:06;35.23;;;18.90;;
6342;SDS011;3204;42.698;23.298;2022-12-19T01:08:32;32.00;;;18.10;;
6342;SDS011;3204;42.698;23.298;2022-12-19T01:10:58;28.40;;;17.60;;
6342;SDS011;3204;42.698;23.298;2022-12-19T01:13:24;30.13;;;17.00;;
6342;SDS011;3204;42.698;23.298;2022-12-19T01:15:51;26.67;;;16.67;;
6342;SDS011;3204;42.698;23.298;2022-12-19T01:18:17;27.87;;;16.73;;
6342;SDS011;3204;42.698;23.298;2022-12-19T01:20:43;22.73;;;16.50;;
6342;SDS011;3204;42.698;23.298;2022-12-19T01:23:11;30.00;;;18.03;;
6342;SDS011;3204;42.698;23.298;2022-12-19T01:25:37;29.27;;;17.47;;
6342;SDS011;3204;42.698;23.298;2022-12-19T01:28:03;28.00;;;16.53;;
6342;SDS011;3204;42.698;23.298;2022-12-19T01:30:30;25.77;;;16.83;;
6342;SDS011;3204;42.698;23.298;2022-12-19T01:32:56;26.33;;;16.63;;
6342;SDS011;3204;42.698;23.298;2022-12-19T01:35:22;33.50;;;19.37;;
6342;SDS011;3204;42.698;23.298;2022-12-19T01:37:51;30.70;;;18.50;;
6342;SDS011;3204;42.698;23.298;2022-12-19T01:40:17;25.53;;;16.50;;
6342;SDS011;3204;42.698;23.298;2022-12-19T01:42:44;26.97;;;16.77;;
6342;SDS011;3204;42.698;23.298;2022-12-19T01:47:42;26.87;;;16.53;;
6342;SDS011;3204;42.698;23.298;2022-12-19T01:50:13;26.93;;;16.70;;
6342;SDS011;3204;42.698;23.298;2022-12-19T01:52:42;31.00;;;17.53;;
6342;SDS011;3204;42.698;23.298;2022-12-19T01:55:07;27.57;;;16.77;;
6342;SDS011;3204;42.698;23.298;2022-12-19T01:57:34;29.43;;;16.37;;
6342;SDS011;3204;42.698;23.298;2022-12-19T02:00:04;35.50;;;20.13;;
6342;SDS011;3204;42.698;23.298;2022-12-19T02:02:38;29.80;;;18.77;;
6342;SDS011;3204;42.698;23.298;2022-12-19T02:05:07;38.70;;;20.57;;
6342;SDS011;3204;42.698;23.298;2022-12-19T02:07:33;44.43;;;21.90;;
6342;SDS011;3204;42.698;23.298;2022-12-19T02:10:01;33.00;;;19.03;;
6342;SDS011;3204;42.698;23.298;2022-12-19T02:12:27;29.27;;;18.33;;
6342;SDS011;3204;42.698;23.298;2022-12-19T02:14:57;28.60;;;17.53;;
6342;SDS011;3204;42.698;23.298;2022-12-19T02:33:54;26.73;;;16.50;;
6342;SDS011;3204;42.698;23.298;2022-12-19T02:36:29;32.83;;;17.93;;
6342;SDS011;3204;42.698;23.298;2022-12-19T02:39:03;23.20;;;14.33;;
6342;SDS011;3204;42.698;23.298;2022-12-19T02:44:39;27.27;;;16.30;;
6342;SDS011;3204;42.698;23.298;2022-12-19T02:47:16;24.10;;;15.37;;
6342;SDS011;3204;42.698;23.298;2022-12-19T02:49:43;25.60;;;16.23;;
6342;SDS011;3204;42.698;23.298;2022-12-19T02:52:50;29.50;;;17.27;;
6342;SDS011;3204;42.698;23.298;2022-12-19T02:55:01;26.50;;;16.77;;
6342;SDS011;3204;42.698;23.298;2022-12-19T02:57:32;26.13;;;16.77;;
6342;SDS011;3204;42.698;23.298;2022-12-19T03:00:19;27.23;;;16.70;;
6342;SDS011;3204;42.698;23.298;2022-12-19T03:06:01;26.63;;;16.80;;
6342;SDS011;3204;42.698;23.298;2022-12-19T03:08:54;27.70;;;15.83;;
6342;SDS011;3204;42.698;23.298;2022-12-19T03:11:28;27.90;;;16.67;;
6342;SDS011;3204;42.698;23.298;2022-12-19T03:14:07;29.03;;;16.83;;
6342;SDS011;3204;42.698;23.298;2022-12-19T03:16:40;26.37;;;16.37;;
6342;SDS011;3204;42.698;23.298;2022-12-19T03:19:07;30.43;;;16.90;;
6342;SDS011;3204;42.698;23.298;2022-12-19T03:21:36;27.70;;;16.87;;
6342;SDS011;3204;42.698;23.298;2022-12-19T03:24:04;29.33;;;17.33;;
6342;SDS011;3204;42.698;23.298;2022-12-19T03:26:33;26.60;;;16.60;;
6342;SDS011;3204;42.698;23.298;2022-12-19T03:29:26;28.90;;;16.73;;
6342;SDS011;3204;42.698;23.298;2022-12-19T03:31:56;28.87;;;17.07;;
6342;SDS011;3204;42.698;23.298;2022-12-19T03:34:28;29.40;;;17.20;;
6342;SDS011;3204;42.698;23.298;2022-12-19T03:37:00;26.87;;;17.47;;
6342;SDS011;3204;42.698;23.298;2022-12-19T03:39:27;27.37;;;16.17;;
6342;SDS011;3204;42.698;23.298;2022-12-19T03:41:55;25.73;;;16.03;;
6342;SDS011;3204;42.698;23.298;2022-12-19T03:44:41;28.37;;;17.03;;
6342;SDS011;3204;42.698;23.298;2022-12-19T03:49:48;26.73;;;17.30;;
6342;SDS011;3204;42.698;23.298;2022-12-19T03:55:12;28.63;;;18.10;;
6342;SDS011;3204;42.698;23.298;2022-12-19T03:57:50;28.33;;;17.40;;
6342;SDS011;3204;42.698;23.298;2022-12-19T04:00:21;25.40;;;16.47;;
6342;SDS011;3204;42.698;23.298;2022-12-19T04:02:49;29.53;;;17.87;;
6342;SDS011;3204;42.698;23.298;2022-12-19T04:05:18;34.33;;;20.20;;
6342;SDS011;3204;42.698;23.298;2022-12-19T04:07:48;35.10;;;19.23;;
6342;SDS011;3204;42.698;23.298;2022-12-19T04:10:18;27.87;;;17.70;;
6342;SDS011;3204;42.698;23.298;2022-12-19T04:12:47;34.20;;;19.77;;
6342;SDS011;3204;42.698;23.298;2022-12-19T04:15:34;29.33;;;17.63;;
6342;SDS011;3204;42.698;23.298;2022-12-19T04:18:03;28.70;;;17.07;;
6342;SDS011;3204;42.698;23.298;2022-12-19T04:20:30;29.47;;;16.90;;
6342;SDS011;3204;42.698;23.298;2022-12-19T04:23:01;30.10;;;17.23;;
6342;SDS011;3204;42.698;23.298;2022-12-19T04:25:33;28.73;;;17.17;;
6342;SDS011;3204;42.698;23.298;2022-12-19T04:28:03;30.43;;;16.97;;
6342;SDS011;3204;42.698;23.298;2022-12-19T04:30:33;27.40;;;17.03;;
6342;SDS011;3204;42.698;23.298;2022-12-19T04:33:01;29.53;;;16.70;;
6342;SDS011;3204;42.698;23.298;2022-12-19T04:35:27;27.33;;;17.97;;
6342;SDS011;3204;42.698;23.298;2022-12-19T04:37:52;30.73;;;17.37;;
6342;SDS011;3204;42.698;23.298;2022-12-19T04:40:18;35.87;;;18.73;;
6342;SDS011;3204;42.698;23.298;2022-12-19T04:42:43;32.70;;;17.50;;
6342;SDS011;3204;42.698;23.298;2022-12-19T04:45:09;32.60;;;17.60;;
6342;SDS011;3204;42.698;23.298;2022-12-19T04:47:35;30.37;;;17.83;;
6342;SDS011;3204;42.698;23.298;2022-12-19T04:50:00;32.47;;;17.63;;
6342;SDS011;3204;42.698;23.298;2022-12-19T04:52:26;32.23;;;17.77;;
6342;SDS011;3204;42.698;23.298;2022-12-19T04:54:51;30.20;;;17.57;;
6342;SDS011;3204;42.698;23.298;2022-12-19T04:57:16;33.33;;;19.00;;
6342;SDS011;3204;42.698;23.298;2022-12-19T04:59:42;30.80;;;17.60;;
6342;SDS011;3204;42.698;23.298;2022-12-19T05:02:07;34.60;;;18.00;;
6342;SDS011;3204;42.698;23.298;2022-12-19T05:04:33;30.20;;;16.87;;
6342;SDS011;3204;42.698;23.298;2022-12-19T05:06:59;28.83;;;16.87;;
6342;SDS011;3204;42.698;23.298;2022-12-19T05:09:24;30.27;;;18.03;;
6342;SDS011;3204;42.698;23.298;2022-12-19T05:11:50;29.20;;;17.13;;
6342;SDS011;3204;42.698;23.298;2022-12-19T05:14:15;34.27;;;18.37;;
6342;SDS011;3204;42.698;23.298;2022-12-19T05:16:41;33.97;;;17.70;;
6342;SDS011;3204;42.698;23.298;2022-12-19T05:19:06;32.33;;;17.60;;
6342;SDS011;3204;42.698;23.298;2022-12-19T05:21:32;33.67;;;19.10;;
6342;SDS011;3204;42.698;23.298;2022-12-19T05:23:58;33.67;;;18.67;;
6342;SDS011;3204;42.698;23.298;2022-12-19T05:26:23;30.60;;;17.80;;
6342;SDS011;3204;42.698;23.298;2022-12-19T05:28:49;32.40;;;19.10;;
6342;SDS011;3204;42.698;23.298;2022-12-19T05:31:16;35.23;;;19.23;;
6342;SDS011;3204;42.698;23.298;2022-12-19T05:33:43;38.37;;;19.20;;
6342;SDS011;3204;42.698;23.298;2022-12-19T05:36:10;33.10;;;19.03;;
6342;SDS011;3204;42.698;23.298;2022-12-19T05:38:36;37.40;;;19.93;;
6342;SDS011;3204;42.698;23.298;2022-12-19T05:41:06;40.03;;;20.23;;
6342;SDS011;3204;42.698;23.298;2022-12-19T05:43:35;36.27;;;20.23;;
6342;SDS011;3204;42.698;23.298;2022-12-19T05:46:02;37.63;;;21.03;;
6342;SDS011;3204;42.698;23.298;2022-12-19T05:48:28;31.97;;;18.33;;
6342;SDS011;3204;42.698;23.298;2022-12-19T05:50:54;34.17;;;18.73;;
6342;SDS011;3204;42.698;23.298;2022-12-19T05:53:19;43.93;;;21.80;;
6342;SDS011;3204;42.698;23.298;2022-12-19T05:55:45;47.20;;;21.37;;
6342;SDS011;3204;42.698;23.298;2022-12-19T05:58:11;80.40;;;30.23;;
6342;SDS011;3204;42.698;23.298;2022-12-19T06:00:36;49.73;;;21.80;;
6342;SDS011;3204;42.698;23.298;2022-12-19T06:03:02;37.90;;;20.53;;
6342;SDS011;3204;42.698;23.298;2022-12-19T06:05:27;36.33;;;21.07;;
6342;SDS011;3204;42.698;23.298;2022-12-19T06:07:53;37.20;;;20.60;;
6342;SDS011;3204;42.698;23.298;2022-12-19T06:10:18;48.10;;;27.33;;
6342;SDS011;3204;42.698;23.298;2022-12-19T06:12:44;32.13;;;20.10;;
6342;SDS011;3204;42.698;23.298;2022-12-19T06:15:10;34.50;;;19.70;;
6342;SDS011;3204;42.698;23.298;2022-12-19T06:17:36;31.57;;;18.07;;
6342;SDS011;3204;42.698;23.298;2022-12-19T06:20:01;33.43;;;17.63;;
6342;SDS011;3204;42.698;23.298;2022-12-19T06:22:27;36.13;;;19.90;;
6342;SDS011;3204;42.698;23.298;2022-12-19T06:24:52;34.77;;;19.37;;
6342;SDS011;3204;42.698;23.298;2022-12-19T06:27:18;33.57;;;19.30;;
6342;SDS011;3204;42.698;23.298;2022-12-19T06:29:43;35.73;;;19.03;;
6342;SDS011;3204;42.698;23.298;2022-12-19T06:32:09;34.20;;;18.13;;
6342;SDS011;3204;42.698;23.298;2022-12-19T06:34:35;35.80;;;18.33;;
6342;SDS011;3204;42.698;23.298;2022-12-19T06:37:00;30.40;;;18.40;;
6342;SDS011;3204;42.698;23.298;2022-12-19T06:39:26;29.43;;;17.77;;
6342;SDS011;3204;42.698;23.298;2022-12-19T06:41:51;38.70;;;20.87;;
6342;SDS011;3204;42.698;23.298;2022-12-19T06:44:35;38.60;;;20.33;;
6342;SDS011;3204;42.698;23.298;2022-12-19T06:47:01;31.53;;;18.23;;
6342;SDS011;3204;42.698;23.298;2022-12-19T06:49:27;31.47;;;17.73;;
6342;SDS011;3204;42.698;23.298;2022-12-19T06:51:52;32.53;;;18.57;;
6342;SDS011;3204;42.698;23.298;2022-12-19T06:54:17;30.93;;;17.07;;
6342;SDS011;3204;42.698;23.298;2022-12-19T06:56:43;32.53;;;17.63;;
6342;SDS011;3204;42.698;23.298;2022-12-19T06:59:12;30.07;;;18.70;;
6342;SDS011;3204;42.698;23.298;2022-12-19T07:01:49;32.20;;;18.53;;
6342;SDS011;3204;42.698;23.298;2022-12-19T07:07:05;31.80;;;17.67;;
6342;SDS011;3204;42.698;23.298;2022-12-19T07:09:31;33.93;;;19.23;;
6342;SDS011;3204;42.698;23.298;2022-12-19T07:11:57;35.10;;;18.13;;
6342;SDS011;3204;42.698;23.298;2022-12-19T07:14:23;34.43;;;19.30;;
6342;SDS011;3204;42.698;23.298;2022-12-19T07:16:48;36.17;;;19.90;;
6342;SDS011;3204;42.698;23.298;2022-12-19T07:19:15;41.00;;;21.83;;
6342;SDS011;3204;42.698;23.298;2022-12-19T07:21:41;46.80;;;24.33;;
6342;SDS011;3204;42.698;23.298;2022-12-19T07:24:07;41.87;;;22.23;;
6342;SDS011;3204;42.698;23.298;2022-12-19T07:26:34;40.97;;;23.73;;
6342;SDS011;3204;42.698;23.298;2022-12-19T07:29:00;38.77;;;20.90;;
6342;SDS011;3204;42.698;23.298;2022-12-19T07:31:25;33.00;;;19.50;;
6342;SDS011;3204;42.698;23.298;2022-12-19T07:33:51;30.23;;;17.70;;
6342;SDS011;3204;42.698;23.298;2022-12-19T07:36:16;37.47;;;17.80;;
6342;SDS011;3204;42.698;23.298;2022-12-19T07:38:41;36.23;;;18.97;;
6342;SDS011;3204;42.698;23.298;2022-12-19T07:41:08;35.93;;;19.90;;
6342;SDS011;3204;42.698;23.298;2022-12-19T07:43:34;39.83;;;20.77;;
6342;SDS011;3204;42.698;23.298;2022-12-19T07:45:59;39.67;;;22.57;;
6342;SDS011;3204;42.698;23.298;2022-12-19T07:48:24;42.33;;;22.50;;
6342;SDS011;3204;42.698;23.298;2022-12-19T07:50:52;44.70;;;24.13;;
6342;SDS011;3204;42.698;23.298;2022-12-19T07:53:18;44.73;;;23.10;;
6342;SDS011;3204;42.698;23.298;2022-12-19T07:55:43;43.57;;;24.47;;
6342;SDS011;3204;42.698;23.298;2022-12-19T07:58:09;40.97;;;23.17;;
6342;SDS011;3204;42.698;23.298;2022-12-19T08:00:35;39.07;;;21.37;;
6342;SDS011;3204;42.698;23.298;2022-12-19T08:03:01;39.43;;;21.63;;
6342;SDS011;3204;42.698;23.298;2022-12-19T08:05:27;40.07;;;20.63;;
6342;SDS011;3204;42.698;23.298;2022-12-19T08:07:52;41.20;;;20.77;;
6342;SDS011;3204;42.698;23.298;2022-12-19T08:10:18;41.47;;;21.53;;
6342;SDS011;3204;42.698;23.298;2022-12-19T08:12:46;39.20;;;22.13;;
6342;SDS011;3204;42.698;23.298;2022-12-19T08:15:11;41.87;;;21.13;;
6342;SDS011;3204;42.698;23.298;2022-12-19T08:17:37;43.40;;;22.83;;
6342;SDS011;3204;42.698;23.298;2022-12-19T08:20:03;41.90;;;23.00;;
6342;SDS011;3204;42.698;23.298;2022-12-19T08:22:30;47.50;;;23.87;;
6342;SDS011;3204;42.698;23.298;2022-12-19T08:24:56;49.33;;;23.83;;
6342;SDS011;3204;42.698;23.298;2022-12-19T08:27:22;47.07;;;24.53;;
6342;SDS011;3204;42.698;23.298;2022-12-19T08:29:47;54.33;;;24.43;;
6342;SDS011;3204;42.698;23.298;2022-12-19T08:32:13;52.40;;;25.53;;
6342;SDS011;3204;42.698;23.298;2022-12-19T08:34:40;43.57;;;23.93;;
6342;SDS011;3204;42.698;23.298;2022-12-19T08:37:06;49.17;;;26.03;;
6342;SDS011;3204;42.698;23.298;2022-12-19T08:39:32;50.97;;;25.53;;
6342;SDS011;3204;42.698;23.298;2022-12-19T08:41:57;39.73;;;22.27;;
6342;SDS011;3204;42.698;23.298;2022-12-19T08:44:23;42.47;;;24.43;;
6342;SDS011;3204;42.698;23.298;2022-12-19T08:46:48;42.97;;;21.50;;
6342;SDS011;3204;42.698;23.298;2022-12-19T08:49:14;38.60;;;21.13;;
6342;SDS011;3204;42.698;23.298;2022-12-19T08:51:39;43.73;;;23.43;;
6342;SDS011;3204;42.698;23.298;2022-12-19T08:54:05;46.23;;;22.57;;
6342;SDS011;3204;42.698;23.298;2022-12-19T08:56:30;46.40;;;24.10;;
6342;SDS011;3204;42.698;23.298;2022-12-19T08:58:55;50.90;;;24.67;;
6342;SDS011;3204;42.698;23.298;2022-12-19T09:01:21;47.57;;;24.83;;
6342;SDS011;3204;42.698;23.298;2022-12-19T09:03:48;54.87;;;25.97;;
6342;SDS011;3204;42.698;23.298;2022-12-19T09:06:13;53.07;;;27.17;;
6342;SDS011;3204;42.698;23.298;2022-12-19T09:08:40;55.03;;;28.57;;
6342;SDS011;3204;42.698;23.298;2022-12-19T09:11:08;61.03;;;29.80;;
6342;SDS011;3204;42.698;23.298;2022-12-19T09:13:36;55.27;;;30.10;;
6342;SDS011;3204;42.698;23.298;2022-12-19T09:16:13;51.47;;;27.13;;
6342;SDS011;3204;42.698;23.298;2022-12-19T09:18:46;52.57;;;26.53;;
6342;SDS011;3204;42.698;23.298;2022-12-19T09:21:13;50.10;;;25.90;;
6342;SDS011;3204;42.698;23.298;2022-12-19T09:23:39;53.53;;;27.50;;
6342;SDS011;3204;42.698;23.298;2022-12-19T09:26:09;46.83;;;25.77;;
6342;SDS011;3204;42.698;23.298;2022-12-19T09:28:37;42.50;;;24.37;;
6342;SDS011;3204;42.698;23.298;2022-12-19T09:31:04;46.17;;;24.77;;
6342;SDS011;3204;42.698;23.298;2022-12-19T09:33:32;42.47;;;23.47;;
6342;SDS011;3204;42.698;23.298;2022-12-19T09:35:59;50.07;;;25.20;;
6342;SDS011;3204;42.698;23.298;2022-12-19T09:38:26;50.90;;;25.33;;
6342;SDS011;3204;42.698;23.298;2022-12-19T09:49:08;42.17;;;22.93;;
6342;SDS011;3204;42.698;23.298;2022-12-19T09:51:39;39.13;;;21.33;;
6342;SDS011;3204;42.698;23.298;2022-12-19T09:54:15;46.33;;;22.60;;
6342;SDS011;3204;42.698;23.298;2022-12-19T09:56:48;43.03;;;21.40;;
6342;SDS011;3204;42.698;23.298;2022-12-19T10:02:25;44.17;;;21.70;;
6342;SDS011;3204;42.698;23.298;2022-12-19T10:05:01;39.90;;;22.40;;
6342;SDS011;3204;42.698;23.298;2022-12-19T10:07:34;40.53;;;21.13;;
6342;SDS011;3204;42.698;23.298;2022-12-19T10:10:00;41.53;;;22.00;;
6342;SDS011;3204;42.698;23.298;2022-12-19T10:18:11;36.90;;;19.27;;
6342;SDS011;3204;42.698;23.298;2022-12-19T10:23:48;35.13;;;21.13;;
6342;SDS011;3204;42.698;23.298;2022-12-19T10:26:35;40.97;;;20.43;;
6342;SDS011;3204;42.698;23.298;2022-12-19T10:31:53;39.10;;;22.00;;
6342;SDS011;3204;42.698;23.298;2022-12-19T10:35:04;37.70;;;21.00;;
6342;SDS011;3204;42.698;23.298;2022-12-19T10:37:27;39.10;;;20.20;;
6342;SDS011;3204;42.698;23.298;2022-12-19T10:42:53;40.20;;;21.67;;
6342;SDS011;3204;42.698;23.298;2022-12-19T10:45:20;38.50;;;20.23;;
6342;SDS011;3204;42.698;23.298;2022-12-19T10:47:48;40.00;;;20.10;;
6342;SDS011;3204;42.698;23.298;2022-12-19T10:50:22;37.13;;;20.10;;
6342;SDS011;3204;42.698;23.298;2022-12-19T10:52:54;39.20;;;20.83;;
6342;SDS011;3204;42.698;23.298;2022-12-19T10:58:10;40.50;;;20.23;;
6342;SDS011;3204;42.698;23.298;2022-12-19T11:03:36;35.13;;;20.13;;
6342;SDS011;3204;42.698;23.298;2022-12-19T11:06:03;39.43;;;22.43;;
6342;SDS011;3204;42.698;23.298;2022-12-19T11:08:30;39.10;;;21.93;;
6342;SDS011;3204;42.698;23.298;2022-12-19T11:13:45;39.83;;;20.70;;
6342;SDS011;3204;42.698;23.298;2022-12-19T11:16:12;35.87;;;19.47;;
6342;SDS011;3204;42.698;23.298;2022-12-19T11:18:45;36.13;;;20.53;;
6342;SDS011;3204;42.698;23.298;2022-12-19T11:23:41;36.83;;;20.23;;
6342;SDS011;3204;42.698;23.298;2022-12-19T11:26:24;32.77;;;18.83;;
6342;SDS011;3204;42.698;23.298;2022-12-19T11:32:03;32.93;;;18.40;;
6342;SDS011;3204;42.698;23.298;2022-12-19T11:34:30;35.13;;;20.23;;
6342;SDS011;3204;42.698;23.298;2022-12-19T11:39:32;33.73;;;18.70;;
6342;SDS011;3204;42.698;23.298;2022-12-19T11:44:33;35.70;;;17.83;;
6342;SDS011;3204;42.698;23.298;2022-12-19T11:49:39;25.80;;;15.23;;
6342;SDS011;3204;42.698;23.298;2022-12-19T11:55:03;24.67;;;15.87;;
6342;SDS011;3204;42.698;23.298;2022-12-19T11:57:32;26.50;;;15.23;;
6342;SDS011;3204;42.698;23.298;2022-12-19T11:59:57;28.07;;;15.03;;
6342;SDS011;3204;42.698;23.298;2022-12-19T12:11:21;22.93;;;14.67;;
6342;SDS011;3204;42.698;23.298;2022-12-19T12:29:57;24.70;;;14.50;;
6342;SDS011;3204;42.698;23.298;2022-12-19T12:32:47;22.63;;;14.07;;
6342;SDS011;3204;42.698;23.298;2022-12-19T12:35:34;19.30;;;11.47;;
6342;SDS011;3204;42.698;23.298;2022-12-19T12:41:05;25.93;;;15.57;;
6342;SDS011;3204;42.698;23.298;2022-12-19T12:46:19;23.73;;;15.10;;
6342;SDS011;3204;42.698;23.298;2022-12-19T12:51:16;24.60;;;15.23;;
6342;SDS011;3204;42.698;23.298;2022-12-19T12:53:43;26.93;;;15.83;;
6342;SDS011;3204;42.698;23.298;2022-12-19T12:56:11;23.53;;;13.73;;
6342;SDS011;3204;42.698;23.298;2022-12-19T13:01:16;25.10;;;15.37;;
6342;SDS011;3204;42.698;23.298;2022-12-19T13:03:50;25.50;;;15.87;;
6342;SDS011;3204;42.698;23.298;2022-12-19T13:06:20;25.03;;;14.60;;
6342;SDS011;3204;42.698;23.298;2022-12-19T13:08:50;21.37;;;14.47;;
6342;SDS011;3204;42.698;23.298;2022-12-19T13:17:02;23.80;;;14.27;;
6342;SDS011;3204;42.698;23.298;2022-12-19T13:19:30;22.30;;;14.97;;
6342;SDS011;3204;42.698;23.298;2022-12-19T13:27:54;22.30;;;14.33;;
6342;SDS011;3204;42.698;23.298;2022-12-19T13:32:32;24.50;;;13.17;;
6342;SDS011;3204;42.698;23.298;2022-12-19T13:40:14;20.50;;;13.50;;
6342;SDS011;3204;42.698;23.298;2022-12-19T13:43:04;22.33;;;13.27;;
6342;SDS011;3204;42.698;23.298;2022-12-19T13:45:59;15.67;;;12.20;;
6342;SDS011;3204;42.698;23.298;2022-12-19T13:48:39;19.97;;;12.67;;
6342;SDS011;3204;42.698;23.298;2022-12-19T13:51:10;20.57;;;13.63;;
6342;SDS011;3204;42.698;23.298;2022-12-19T13:53:37;18.90;;;12.33;;
6342;SDS011;3204;42.698;23.298;2022-12-19T13:56:05;22.23;;;13.57;;
6342;SDS011;3204;42.698;23.298;2022-12-19T13:58:45;15.20;;;12.37;;
6342;SDS011;3204;42.698;23.298;2022-12-19T14:01:28;23.17;;;14.73;;
6342;SDS011;3204;42.698;23.298;2022-12-19T14:03:57;18.57;;;13.07;;
6342;SDS011;3204;42.698;23.298;2022-12-19T14:06:29;19.77;;;12.37;;
6342;SDS011;3204;42.698;23.298;2022-12-19T14:09:04;21.97;;;13.73;;
6342;SDS011;3204;42.698;23.298;2022-12-19T14:11:33;21.77;;;13.70;;
6342;SDS011;3204;42.698;23.298;2022-12-19T14:14:04;21.17;;;13.00;;
6342;SDS011;3204;42.698;23.298;2022-12-19T14:17:10;20.40;;;12.60;;
6342;SDS011;3204;42.698;23.298;2022-12-19T14:19:39;19.30;;;12.47;;
6342;SDS011;3204;42.698;23.298;2022-12-19T14:22:17;18.63;;;12.83;;
6342;SDS011;3204;42.698;23.298;2022-12-19T14:24:55;20.67;;;12.83;;
6342;SDS011;3204;42.698;23.298;2022-12-19T14:27:27;24.20;;;13.27;;
6342;SDS011;3204;42.698;23.298;2022-12-19T14:30:07;19.70;;;13.67;;
6342;SDS011;3204;42.698;23.298;2022-12-19T14:32:42;21.30;;;13.33;;
6342;SDS011;3204;42.698;23.298;2022-12-19T14:35:19;21.03;;;13.93;;
6342;SDS011;3204;42.698;23.298;2022-12-19T14:37:56;20.67;;;14.20;;
6342;SDS011;3204;42.698;23.298;2022-12-19T14:40:26;23.63;;;12.63;;
6342;SDS011;3204;42.698;23.298;2022-12-19T14:43:03;26.37;;;15.57;;
6342;SDS011;3204;42.698;23.298;2022-12-19T14:46:08;23.30;;;14.97;;
6342;SDS011;3204;42.698;23.298;2022-12-19T14:51:36;16.93;;;11.90;;
6342;SDS011;3204;42.698;23.298;2022-12-19T15:01:50;25.97;;;16.77;;
6342;SDS011;3204;42.698;23.298;2022-12-19T15:04:17;18.40;;;12.27;;
6342;SDS011;3204;42.698;23.298;2022-12-19T15:06:47;21.47;;;12.83;;
6342;SDS011;3204;42.698;23.298;2022-12-19T15:09:15;24.73;;;15.03;;
6342;SDS011;3204;42.698;23.298;2022-12-19T15:11:43;19.30;;;13.23;;
6342;SDS011;3204;42.698;23.298;2022-12-19T15:14:31;16.57;;;11.60;;
6342;SDS011;3204;42.698;23.298;2022-12-19T15:17:42;15.33;;;11.10;;
6342;SDS011;3204;42.698;23.298;2022-12-19T15:19:56;17.43;;;11.67;;
6342;SDS011;3204;42.698;23.298;2022-12-19T15:22:22;17.27;;;10.97;;
6342;SDS011;3204;42.698;23.298;2022-12-19T15:24:48;18.83;;;12.77;;
6342;SDS011;3204;42.698;23.298;2022-12-19T15:27:14;22.27;;;11.97;;
6342;SDS011;3204;42.698;23.298;2022-12-19T15:29:41;20.97;;;13.33;;
6342;SDS011;3204;42.698;23.298;2022-12-19T15:32:11;20.93;;;12.97;;
6342;SDS011;3204;42.698;23.298;2022-12-19T15:34:38;28.40;;;15.43;;
6342;SDS011;3204;42.698;23.298;2022-12-19T15:37:06;29.63;;;17.33;;
6342;SDS011;3204;42.698;23.298;2022-12-19T15:39:34;28.73;;;17.90;;
6342;SDS011;3204;42.698;23.298;2022-12-19T15:41:59;33.40;;;19.47;;
6342;SDS011;3204;42.698;23.298;2022-12-19T15:44:32;36.77;;;19.23;;
6342;SDS011;3204;42.698;23.298;2022-12-19T15:47:00;34.40;;;18.50;;
6342;SDS011;3204;42.698;23.298;2022-12-19T15:49:28;32.97;;;16.90;;
6342;SDS011;3204;42.698;23.298;2022-12-19T15:51:53;33.47;;;17.30;;
6342;SDS011;3204;42.698;23.298;2022-12-19T15:54:19;32.60;;;17.90;;
6342;SDS011;3204;42.698;23.298;2022-12-19T15:56:46;31.90;;;18.43;;
6342;SDS011;3204;42.698;23.298;2022-12-19T15:59:22;29.97;;;18.07;;
6342;SDS011;3204;42.698;23.298;2022-12-19T16:01:49;28.83;;;16.57;;
6342;SDS011;3204;42.698;23.298;2022-12-19T16:04:15;32.40;;;19.47;;
6342;SDS011;3204;42.698;23.298;2022-12-19T16:06:40;37.00;;;19.80;;
6342;SDS011;3204;42.698;23.298;2022-12-19T16:09:25;34.63;;;19.90;;
6342;SDS011;3204;42.698;23.298;2022-12-19T16:11:52;32.60;;;20.20;;
6342;SDS011;3204;42.698;23.298;2022-12-19T16:14:19;32.93;;;19.63;;
6342;SDS011;3204;42.698;23.298;2022-12-19T16:16:47;34.37;;;18.67;;
6342;SDS011;3204;42.698;23.298;2022-12-19T16:19:26;34.33;;;19.20;;
6342;SDS011;3204;42.698;23.298;2022-12-19T16:21:54;30.43;;;18.23;;
6342;SDS011;3204;42.698;23.298;2022-12-19T16:24:20;35.97;;;18.63;;
6342;SDS011;3204;42.698;23.298;2022-12-19T16:26:56;30.37;;;18.67;;
6342;SDS011;3204;42.698;23.298;2022-12-19T16:29:23;30.70;;;18.53;;
6342;SDS011;3204;42.698;23.298;2022-12-19T16:31:50;32.43;;;18.70;;
6342;SDS011;3204;42.698;23.298;2022-12-19T16:34:19;33.27;;;18.23;;
6342;SDS011;3204;42.698;23.298;2022-12-19T16:36:46;32.50;;;18.20;;
6342;SDS011;3204;42.698;23.298;2022-12-19T16:39:12;34.87;;;20.13;;
6342;SDS011;3204;42.698;23.298;2022-12-19T16:41:39;33.90;;;19.53;;
6342;SDS011;3204;42.698;23.298;2022-12-19T16:44:12;36.07;;;20.43;;
6342;SDS011;3204;42.698;23.298;2022-12-19T16:46:43;35.67;;;19.40;;
6342;SDS011;3204;42.698;23.298;2022-12-19T16:49:11;37.13;;;20.10;;
6342;SDS011;3204;42.698;23.298;2022-12-19T16:51:38;35.07;;;20.03;;
6342;SDS011;3204;42.698;23.298;2022-12-19T16:54:04;36.33;;;20.53;;
6342;SDS011;3204;42.698;23.298;2022-12-19T16:56:32;37.77;;;20.47;;
6342;SDS011;3204;42.698;23.298;2022-12-19T16:59:00;34.43;;;20.50;;
6342;SDS011;3204;42.698;23.298;2022-12-19T17:01:27;42.23;;;22.07;;
6342;SDS011;3204;42.698;23.298;2022-12-19T17:03:53;29.90;;;18.10;;
6342;SDS011;3204;42.698;23.298;2022-12-19T17:06:19;36.03;;;19.20;;
6342;SDS011;3204;42.698;23.298;2022-12-19T17:08:45;31.83;;;18.77;;
6342;SDS011;3204;42.698;23.298;2022-12-19T17:11:12;36.80;;;19.47;;
6342;SDS011;3204;42.698;23.298;2022-12-19T17:13:40;33.17;;;18.93;;
6342;SDS011;3204;42.698;23.298;2022-12-19T17:16:06;39.87;;;20.03;;
6342;SDS011;3204;42.698;23.298;2022-12-19T17:18:32;33.60;;;19.50;;